Time;durP1;ratioP1;P1;durP2;ratioP2;P2;SDS_P1;SDS_P2;PMS_P1;PMS_P2;Temp;Humidity;BMP_temperature;BMP_pressure;BME280_temperature;BME280_humidity;BME280_pressure;Samples;Min_cycle;Max_cycle;Signal;HPM_P1;HPM_P2
2022/09/25 00:00:36;;;;;;;6.30;3.03;;;14.20;99.90;;;;;;5056606;28;20089;-74
2022/09/25 00:03:02;;;;;;;7.65;2.97;;;14.20;99.90;;;;;;5073989;28;20028;-74
2022/09/25 00:05:28;;;;;;;7.25;2.60;;;14.20;99.90;;;;;;5073789;28;20032;-74
2022/09/25 00:07:55;;;;;;;8.13;2.80;;;14.20;99.90;;;;;;5073918;28;20029;-74
2022/09/25 00:10:24;;;;;;;8.73;2.90;;;14.20;99.90;;;;;;5073387;28;20035;-75
2022/09/25 00:12:50;;;;;;;5.72;2.65;;;14.20;99.90;;;;;;5073626;28;20492;-73
2022/09/25 00:15:17;;;;;;;7.40;2.47;;;14.20;99.90;;;;;;5073746;28;20024;-74
2022/09/25 00:17:43;;;;;;;7.18;2.55;;;14.20;99.90;;;;;;5073479;28;20025;-74
2022/09/25 00:20:09;;;;;;;5.60;2.28;;;14.20;99.90;;;;;;5073519;28;20028;-75
2022/09/25 00:22:35;;;;;;;7.70;2.58;;;14.20;99.90;;;;;;5073590;28;20183;-74
2022/09/25 00:25:02;;;;;;;8.50;2.20;;;14.20;99.90;;;;;;5073533;28;20485;-74
2022/09/25 00:27:28;;;;;;;6.82;2.10;;;14.10;99.90;;;;;;5072732;28;20507;-73
2022/09/25 00:29:54;;;;;;;8.23;2.38;;;14.10;99.90;;;;;;5055051;28;20036;-73
2022/09/25 00:32:20;;;;;;;11.30;2.40;;;14.10;99.90;;;;;;5072655;28;20036;-73
2022/09/25 00:34:46;;;;;;;7.05;1.92;;;14.10;99.90;;;;;;5073033;28;20036;-73
2022/09/25 00:37:12;;;;;;;9.93;2.20;;;14.10;99.90;;;;;;5072854;28;20082;-73
2022/09/25 00:39:38;;;;;;;5.57;2.03;;;14.10;99.90;;;;;;5072604;28;20043;-73
2022/09/25 00:42:04;;;;;;;7.00;1.90;;;14.10;99.90;;;;;;5072634;28;20025;-73
2022/09/25 00:44:58;;;;;;;8.32;2.10;;;14.10;99.90;;;;;;5072763;28;20035;-73
2022/09/25 00:47:56;;;;;;;9.88;2.05;;;14.10;99.90;;;;;;5053569;28;20025;-73
2022/09/25 00:50:25;;;;;;;8.60;2.60;;;14.00;99.90;;;;;;5072837;28;20036;-74
2022/09/25 00:52:54;;;;;;;8.57;2.65;;;14.00;99.90;;;;;;5073372;28;20625;-74
2022/09/25 00:55:22;;;;;;;8.35;1.60;;;14.10;99.90;;;;;;5072767;28;20028;-74
2022/09/25 00:57:52;;;;;;;8.55;2.40;;;14.00;99.90;;;;;;5072779;28;20553;-75
2022/09/25 01:00:18;;;;;;;9.77;2.67;;;14.00;99.90;;;;;;5072805;28;20098;-74
2022/09/25 01:02:52;;;;;;;6.78;2.28;;;14.00;99.90;;;;;;5073011;28;20024;-74
2022/09/25 01:05:23;;;;;;;6.75;2.25;;;14.00;99.90;;;;;;5054855;28;20086;-74
2022/09/25 01:07:51;;;;;;;10.85;2.80;;;14.00;99.90;;;;;;5072549;28;20056;-73
2022/09/25 01:10:19;;;;;;;9.15;2.22;;;14.00;99.90;;;;;;5072871;28;20401;-74
2022/09/25 01:12:47;;;;;;;7.63;2.13;;;14.00;99.90;;;;;;5072941;28;20032;-74
2022/09/25 01:15:17;;;;;;;9.82;2.25;;;13.90;99.90;;;;;;5072517;28;20032;-74
2022/09/25 01:18:19;;;;;;;10.32;3.00;;;14.00;99.90;;;;;;5072346;28;20039;-73
2022/09/25 01:21:07;;;;;;;8.50;2.85;;;14.00;99.90;;;;;;5072118;28;20021;-74
2022/09/25 01:24:05;;;;;;;6.32;2.92;;;14.00;99.90;;;;;;5054926;28;20459;-74
2022/09/25 01:27:08;;;;;;;10.98;3.20;;;14.00;99.90;;;;;;5072114;28;20067;-74
2022/09/25 01:29:52;;;;;;;10.30;2.95;;;14.00;99.90;;;;;;5072284;28;20500;-74
2022/09/25 01:32:37;;;;;;;10.50;2.85;;;14.00;99.90;;;;;;5072014;28;20039;-73
2022/09/25 01:35:33;;;;;;;10.50;3.40;;;14.00;99.90;;;;;;5072546;28;20036;-74
2022/09/25 01:38:08;;;;;;;4.47;2.20;;;14.00;99.90;;;;;;5055084;28;20124;-73
2022/09/25 01:40:41;;;;;;;8.65;2.80;;;13.90;99.90;;;;;;5071310;28;20113;-73
2022/09/25 01:43:17;;;;;;;8.82;2.78;;;14.00;99.90;;;;;;5071459;28;20429;-73
2022/09/25 01:45:52;;;;;;;13.95;2.70;;;14.00;99.90;;;;;;5071247;28;20120;-73
2022/09/25 01:48:23;;;;;;;8.52;2.58;;;14.00;99.90;;;;;;5071465;28;20275;-73
2022/09/25 01:50:56;;;;;;;8.05;2.47;;;13.90;99.90;;;;;;5071197;28;20036;-73
2022/09/25 01:53:31;;;;;;;8.98;2.13;;;14.00;99.90;;;;;;5071270;28;20036;-73
2022/09/25 01:56:03;;;;;;;6.80;2.10;;;13.90;99.90;;;;;;5071145;28;20032;-73
2022/09/25 01:58:39;;;;;;;10.25;2.45;;;13.90;99.90;;;;;;5070939;28;20036;-73
2022/09/25 02:01:14;;;;;;;8.82;2.30;;;13.90;99.90;;;;;;5071070;28;20104;-73
2022/09/25 02:03:46;;;;;;;8.02;2.08;;;13.90;99.90;;;;;;5071217;28;20491;-73
2022/09/25 02:06:18;;;;;;;10.50;2.50;;;13.90;99.90;;;;;;5053077;28;20078;-73
2022/09/25 02:09:00;;;;;;;9.88;1.90;;;13.90;99.90;;;;;;5071226;28;20028;-73
2022/09/25 02:11:32;;;;;;;9.18;2.80;;;13.90;99.90;;;;;;5071288;28;20051;-72
2022/09/25 02:14:22;;;;;;;9.38;2.00;;;13.90;99.90;;;;;;5071360;28;20089;-73
2022/09/25 02:16:54;;;;;;;7.97;1.90;;;13.90;99.90;;;;;;5052938;28;20055;-73
2022/09/25 02:22:18;;;;;;;10.45;2.30;;;13.90;99.90;;;;;;5070906;28;20103;-73
2022/09/25 02:24:55;;;;;;;10.65;2.30;;;13.90;99.90;;;;;;5070886;28;20432;-73
2022/09/25 02:27:23;;;;;;;9.57;1.80;;;13.80;99.90;;;;;;5070606;28;20040;-73
2022/09/25 02:29:51;;;;;;;8.57;1.90;;;13.90;99.90;;;;;;5070788;28;20032;-73
2022/09/25 02:32:20;;;;;;;9.27;2.13;;;13.90;99.90;;;;;;5052777;28;20028;-73
2022/09/25 02:34:46;;;;;;;;;;;13.90;99.90;;;;;;5071272;28;20028;-73
2022/09/25 02:37:16;;;;;;;11.77;2.05;;;13.90;99.90;;;;;;5070682;28;19936;-73
2022/09/25 02:39:48;;;;;;;7.15;1.67;;;13.90;99.90;;;;;;5070972;28;20028;-73
2022/09/25 02:42:43;;;;;;;12.40;2.35;;;13.90;99.90;;;;;;5070806;28;20058;-73
2022/09/25 02:45:21;;;;;;;12.45;2.30;;;13.80;99.90;;;;;;5070749;28;20029;-73
2022/09/25 02:48:12;;;;;;;7.32;1.98;;;13.80;99.90;;;;;;5070626;28;20033;-73
2022/09/25 02:51:03;;;;;;;11.38;2.05;;;13.80;99.90;;;;;;5070627;28;20397;-73
2022/09/25 02:53:43;;;;;;;11.68;2.15;;;13.80;99.90;;;;;;5070660;28;20342;-74
2022/09/25 02:56:32;;;;;;;11.13;2.90;;;13.80;99.90;;;;;;5052839;28;20049;-74
2022/09/25 02:59:09;;;;;;;13.13;2.95;;;13.80;99.90;;;;;;5052604;28;20029;-74
2022/09/25 03:01:40;;;;;;;8.68;2.20;;;13.80;99.90;;;;;;5052492;28;20041;-73
2022/09/25 03:04:08;;;;;;;6.63;1.95;;;13.70;99.90;;;;;;5070590;28;20037;-74
2022/09/25 03:06:37;;;;;;;10.57;2.70;;;13.70;99.90;;;;;;5070352;28;20074;-74
2022/09/25 03:09:04;;;;;;;12.55;2.58;;;13.70;99.90;;;;;;5070526;28;20025;-74
2022/09/25 03:11:30;;;;;;;8.88;2.60;;;13.70;99.90;;;;;;5073353;28;20103;-74
2022/09/25 03:13:58;;;;;;;7.57;2.53;;;13.60;99.90;;;;;;5074624;28;20033;-73
2022/09/25 03:16:39;;;;;;;13.98;3.97;;;13.70;99.90;;;;;;5074413;28;20078;-75
2022/09/25 03:19:06;;;;;;;17.67;5.20;;;13.60;99.90;;;;;;5056499;28;20081;-74
2022/09/25 03:21:32;;;;;;;13.38;3.58;;;13.60;99.90;;;;;;5057026;28;20025;-74
2022/09/25 03:23:58;;;;;;;10.32;3.08;;;13.60;99.90;;;;;;5075156;28;20024;-74
2022/09/25 03:26:26;;;;;;;8.30;2.83;;;13.60;99.90;;;;;;5074460;28;20035;-74
2022/09/25 03:28:52;;;;;;;9.05;2.92;;;13.60;99.90;;;;;;5058941;22;20445;-81
2022/09/25 03:31:18;;;;;;;11.93;3.05;;;13.60;99.90;;;;;;5052681;28;20078;-81
2022/09/25 03:33:45;;;;;;;8.23;2.50;;;13.60;99.90;;;;;;5052479;28;20541;-81
2022/09/25 03:36:13;;;;;;;8.38;2.60;;;13.50;99.90;;;;;;5053605;28;20048;-80
2022/09/25 03:38:40;;;;;;;13.13;3.00;;;13.60;99.90;;;;;;5052461;28;20551;-81
2022/09/25 03:41:07;;;;;;;7.57;2.78;;;13.50;99.90;;;;;;5053802;28;20100;-81
2022/09/25 03:43:35;;;;;;;9.50;2.30;;;13.50;99.90;;;;;;5053514;28;20025;-81
2022/09/25 03:46:02;;;;;;;8.73;2.65;;;13.50;99.90;;;;;;5053438;28;20029;-80
2022/09/25 03:48:29;;;;;;;11.88;2.35;;;13.50;99.90;;;;;;5053419;28;20083;-81
2022/09/25 03:50:55;;;;;;;8.82;2.40;;;13.50;99.90;;;;;;5053585;28;20036;-80
2022/09/25 03:53:21;;;;;;;8.52;2.22;;;13.50;99.90;;;;;;5053685;28;20059;-81
2022/09/25 03:55:47;;;;;;;9.45;2.25;;;13.50;99.90;;;;;;5053639;28;20409;-81
2022/09/25 03:58:15;;;;;;;9.35;2.35;;;13.60;99.90;;;;;;5053363;28;20036;-81
2022/09/25 04:00:41;;;;;;;7.32;2.25;;;13.50;99.90;;;;;;5053115;28;20116;-81
2022/09/25 04:03:07;;;;;;;11.05;2.20;;;13.60;99.90;;;;;;5053401;28;20100;-81
2022/09/25 04:05:33;;;;;;;7.78;2.30;;;13.60;99.90;;;;;;5053127;28;20037;-81
2022/09/25 04:08:00;;;;;;;9.23;2.35;;;13.60;99.90;;;;;;5051730;28;20033;-80
2022/09/25 04:10:27;;;;;;;5.53;2.03;;;13.50;99.90;;;;;;5035126;28;20458;-80
2022/09/25 04:12:53;;;;;;;9.63;2.10;;;13.50;99.90;;;;;;5051816;28;20028;-81
2022/09/25 04:15:22;;;;;;;8.77;2.10;;;13.50;99.90;;;;;;5035028;28;20550;-81
2022/09/25 04:17:48;;;;;;;10.63;1.73;;;13.50;99.90;;;;;;5053058;28;20443;-81
2022/09/25 04:20:14;;;;;;;8.65;1.80;;;13.50;99.90;;;;;;5052773;28;20058;-81
2022/09/25 04:22:40;;;;;;;8.07;2.35;;;13.50;99.90;;;;;;5053014;28;20039;-81
2022/09/25 04:25:08;;;;;;;8.27;1.90;;;13.50;99.90;;;;;;5051624;28;20127;-80
2022/09/25 04:27:33;;;;;;;9.88;2.45;;;13.60;99.90;;;;;;5052474;28;20119;-80
2022/09/25 04:30:00;;;;;;;7.72;2.03;;;13.50;99.90;;;;;;5051314;28;20113;-80
2022/09/25 04:35:10;;;;;;;10.25;2.03;;;13.50;99.90;;;;;;5052593;28;20119;-80
2022/09/25 04:37:36;;;;;;;8.90;1.73;;;13.50;99.90;;;;;;5052852;28;20076;-80
2022/09/25 04:40:02;;;;;;;7.68;2.28;;;13.50;99.90;;;;;;5052446;28;20033;-80
2022/09/25 04:42:28;;;;;;;14.07;2.30;;;13.50;99.90;;;;;;5052551;28;20032;-81
2022/09/25 04:44:55;;;;;;;7.95;1.63;;;13.50;99.90;;;;;;5052530;28;20028;-80
2022/09/25 04:47:22;;;;;;;9.93;2.53;;;13.50;99.90;;;;;;5034324;28;20127;-81
2022/09/25 04:49:48;;;;;;;6.30;2.00;;;13.40;99.90;;;;;;5052228;28;20036;-80
2022/09/25 04:52:16;;;;;;;8.20;2.28;;;13.40;99.90;;;;;;5034603;28;20025;-81
2022/09/25 04:54:42;;;;;;;8.40;1.95;;;13.40;99.90;;;;;;5052296;28;20485;-80
2022/09/25 04:57:19;;;;;;;7.63;1.73;;;13.40;99.90;;;;;;5051850;28;20024;-81
2022/09/25 04:59:46;;;;;;;9.48;2.38;;;13.40;99.90;;;;;;5052037;28;20139;-81
2022/09/25 05:02:12;;;;;;;8.57;1.90;;;13.30;99.90;;;;;;5052427;28;20029;-80
2022/09/25 05:04:38;;;;;;;6.03;1.80;;;13.30;99.90;;;;;;5052131;28;20039;-81
2022/09/25 05:07:04;;;;;;;8.43;1.88;;;13.30;99.90;;;;;;5051865;28;20025;-80
2022/09/25 05:09:30;;;;;;;8.23;2.25;;;13.30;99.90;;;;;;5051825;28;20393;-80
2022/09/25 05:11:56;;;;;;;9.10;1.85;;;13.30;99.90;;;;;;5051999;28;20121;-80
2022/09/25 05:14:22;;;;;;;7.40;2.25;;;13.20;99.90;;;;;;5051977;28;20103;-81
2022/09/25 05:16:48;;;;;;;7.85;2.00;;;13.10;99.90;;;;;;5051843;28;20075;-80
2022/09/25 05:19:14;;;;;;;13.13;2.42;;;13.10;99.90;;;;;;5051546;28;20033;-80
2022/09/25 05:21:41;;;;;;;6.18;2.05;;;13.10;99.90;;;;;;5051904;28;20029;-80
2022/09/25 05:24:08;;;;;;;10.13;2.30;;;13.00;99.90;;;;;;5051765;28;20135;-80
2022/09/25 05:26:34;;;;;;;9.93;2.30;;;13.00;99.90;;;;;;5051409;28;20032;-81
2022/09/25 05:29:00;;;;;;;10.25;2.35;;;13.10;99.90;;;;;;5051499;28;20051;-80
2022/09/25 05:31:26;;;;;;;10.85;2.38;;;13.10;99.90;;;;;;5051813;28;20025;-81
2022/09/25 05:33:52;;;;;;;9.05;1.95;;;13.10;99.90;;;;;;5051038;28;20032;-81
2022/09/25 05:36:18;;;;;;;13.52;2.10;;;13.10;99.90;;;;;;5051487;28;20060;-81
2022/09/25 05:38:44;;;;;;;8.40;2.00;;;13.10;99.90;;;;;;5051132;28;20052;-80
2022/09/25 05:41:10;;;;;;;5.43;1.83;;;13.10;99.90;;;;;;5051486;28;20025;-80
2022/09/25 05:43:45;;;;;;;8.25;2.13;;;13.10;99.90;;;;;;5051469;28;20021;-80
2022/09/25 05:46:11;;;;;;;10.25;3.05;;;13.10;99.90;;;;;;5051181;28;20029;-81
2022/09/25 05:48:37;;;;;;;9.32;2.70;;;13.10;99.90;;;;;;5049880;28;20112;-80
2022/09/25 05:51:03;;;;;;;9.43;2.25;;;13.10;99.90;;;;;;5051380;28;20036;-80
2022/09/25 05:53:29;;;;;;;7.32;2.03;;;13.10;99.90;;;;;;5051101;28;20029;-80
2022/09/25 05:55:59;;;;;;;12.98;3.60;;;13.10;99.90;;;;;;5051459;28;20419;-80
2022/09/25 05:58:27;;;;;;;11.10;3.15;;;13.10;99.90;;;;;;5033343;28;20025;-80
2022/09/25 06:00:56;;;;;;;8.20;2.25;;;13.10;99.90;;;;;;5049916;28;20040;-80
2022/09/25 06:03:22;;;;;;;13.82;3.60;;;13.00;99.90;;;;;;5051247;28;20163;-80
2022/09/25 06:05:48;;;;;;;13.52;3.88;;;13.00;99.90;;;;;;5050807;28;20071;-81
2022/09/25 06:08:14;;;;;;;8.45;2.50;;;13.00;99.90;;;;;;5033091;28;20029;-81
2022/09/25 06:10:41;;;;;;;11.18;2.70;;;13.00;99.90;;;;;;5049489;28;20029;-80
2022/09/25 06:13:07;;;;;;;10.55;3.72;;;12.90;99.90;;;;;;5051030;28;20108;-81
2022/09/25 06:15:36;;;;;;;14.35;3.97;;;13.00;99.90;;;;;;5049707;28;20065;-80
2022/09/25 06:18:06;;;;;;;9.52;2.50;;;13.00;99.90;;;;;;5049675;28;20045;-80
2022/09/25 06:20:33;;;;;;;8.23;2.53;;;12.90;99.90;;;;;;5049245;28;20028;-80
2022/09/25 06:23:01;;;;;;;10.05;3.05;;;12.90;99.90;;;;;;5050942;28;20029;-81
2022/09/25 06:25:31;;;;;;;8.90;2.95;;;12.90;99.90;;;;;;5049623;28;20055;-81
2022/09/25 06:27:59;;;;;;;7.22;2.47;;;12.90;99.90;;;;;;5050613;28;20028;-81
2022/09/25 06:30:29;;;;;;;9.52;2.58;;;12.90;99.90;;;;;;5032685;28;20108;-81
2022/09/25 06:33:03;;;;;;;9.80;3.70;;;12.90;99.90;;;;;;5050612;28;20033;-81
2022/09/25 06:35:29;;;;;;;13.98;4.32;;;12.90;99.90;;;;;;5050640;28;20090;-81
2022/09/25 06:37:59;;;;;;;14.30;4.30;;;12.90;99.90;;;;;;5050342;28;20497;-80
2022/09/25 06:40:26;;;;;;;8.90;2.80;;;13.00;99.90;;;;;;5050368;28;20025;-80
2022/09/25 06:43:00;;;;;;;7.75;2.97;;;13.00;99.90;;;;;;5050556;28;20115;-80
2022/09/25 06:45:28;;;;;;;8.52;2.33;;;13.00;99.90;;;;;;5049714;28;20028;-79
2022/09/25 06:48:00;;;;;;;7.80;2.42;;;13.00;99.90;;;;;;5054832;28;20025;-79
2022/09/25 06:50:30;;;;;;;9.95;2.63;;;13.00;99.90;;;;;;5054619;28;20032;-80
2022/09/25 06:52:58;;;;;;;12.73;2.70;;;13.00;99.90;;;;;;5055049;28;20025;-79
2022/09/25 06:55:24;;;;;;;10.93;2.70;;;13.00;99.90;;;;;;5054549;28;20547;-82
2022/09/25 06:57:50;;;;;;;9.45;2.45;;;13.00;99.90;;;;;;5054397;28;20036;-80
2022/09/25 07:00:16;;;;;;;11.68;2.60;;;13.10;99.90;;;;;;5054524;28;20086;-82
2022/09/25 07:05:26;;;;;;;8.35;2.40;;;13.10;99.90;;;;;;5054554;28;20049;-81
2022/09/25 07:07:53;;;;;;;10.48;2.50;;;13.10;99.90;;;;;;5054109;28;20469;-82
2022/09/25 07:10:19;;;;;;;11.30;2.80;;;13.10;99.90;;;;;;5054020;28;20481;-81
2022/09/25 07:12:46;;;;;;;9.07;2.63;;;13.00;99.90;;;;;;5052919;28;20032;-81
2022/09/25 07:15:13;;;;;;;9.07;2.88;;;13.00;99.90;;;;;;5054128;28;20071;-81
2022/09/25 07:17:43;;;;;;;11.82;2.20;;;13.10;99.90;;;;;;5053871;28;20435;-82
2022/09/25 07:20:11;;;;;;;9.63;2.35;;;13.10;99.90;;;;;;5052523;28;20611;-82
2022/09/25 07:22:38;;;;;;;11.75;2.63;;;13.10;99.90;;;;;;5036198;28;20066;-81
2022/09/25 07:25:04;;;;;;;10.70;2.65;;;13.10;99.90;;;;;;5052677;28;20040;-79
2022/09/25 07:27:30;;;;;;;8.60;2.30;;;13.10;99.90;;;;;;5035817;28;20122;-81
2022/09/25 07:29:56;;;;;;;11.38;3.15;;;13.20;99.90;;;;;;5053790;28;20083;-79
2022/09/25 07:32:21;;;;;;;8.60;2.45;;;13.20;99.90;;;;;;5052662;28;20089;-79
2022/09/25 07:34:50;;;;;;;8.60;3.00;;;13.20;99.90;;;;;;5053811;28;20037;-81
2022/09/25 07:37:17;;;;;;;10.65;2.55;;;13.30;99.90;;;;;;5053589;28;20029;-81
2022/09/25 07:39:43;;;;;;;11.98;2.70;;;13.30;99.90;;;;;;5053520;28;20048;-81
2022/09/25 07:42:09;;;;;;;10.38;3.45;;;13.30;99.90;;;;;;5053732;28;20481;-81
2022/09/25 07:44:35;;;;;;;11.88;3.72;;;13.30;99.90;;;;;;5052516;28;20131;-81
2022/09/25 07:47:02;;;;;;;10.20;3.05;;;13.30;99.90;;;;;;5052284;28;20040;-81
2022/09/25 07:49:32;;;;;;;9.43;2.53;;;13.40;99.90;;;;;;5053454;28;20041;-81
2022/09/25 07:51:58;;;;;;;8.15;1.95;;;13.50;99.90;;;;;;5053551;28;20451;-81
2022/09/25 07:54:24;;;;;;;8.93;2.00;;;13.40;99.90;;;;;;5053401;28;20029;-82
2022/09/25 07:56:50;;;;;;;9.63;1.95;;;13.50;99.90;;;;;;5052800;28;20079;-81
2022/09/25 07:59:16;;;;;;;9.20;1.95;;;13.50;99.90;;;;;;5051872;28;20029;-81
2022/09/25 08:01:41;;;;;;;13.85;2.72;;;13.50;99.90;;;;;;5053409;28;20037;-81
2022/09/25 08:04:07;;;;;;;7.00;1.60;;;13.60;99.90;;;;;;5052135;28;20420;-81
2022/09/25 08:06:34;;;;;;;9.88;2.05;;;13.60;99.90;;;;;;5051889;28;20032;-81
2022/09/25 08:09:00;;;;;;;8.15;1.77;;;13.60;99.90;;;;;;5053251;28;20029;-82
2022/09/25 08:11:27;;;;;;;7.72;1.67;;;13.60;99.90;;;;;;5051936;28;20452;-82
2022/09/25 08:13:53;;;;;;;8.55;1.90;;;13.70;99.90;;;;;;5053226;28;20610;-81
2022/09/25 08:16:21;;;;;;;6.90;1.80;;;13.70;99.90;;;;;;5051584;28;20389;-81
2022/09/25 08:18:48;;;;;;;7.88;1.67;;;13.70;99.90;;;;;;5052823;28;20029;-81
2022/09/25 08:21:16;;;;;;;8.35;1.83;;;13.70;99.90;;;;;;5052877;28;20103;-81
2022/09/25 08:23:44;;;;;;;11.45;2.42;;;13.70;99.90;;;;;;5053394;28;20117;-82
2022/09/25 08:26:10;;;;;;;8.70;1.70;;;13.70;99.90;;;;;;5034798;28;20496;-81
2022/09/25 08:28:36;;;;;;;7.55;2.03;;;13.80;99.90;;;;;;5034700;28;20374;-81
2022/09/25 08:31:02;;;;;;;7.18;1.30;;;13.80;99.90;;;;;;5052746;28;20040;-81
2022/09/25 08:33:29;;;;;;;8.32;1.63;;;13.80;99.90;;;;;;5053319;28;20033;-81
2022/09/25 08:36:04;;;;;;;7.90;1.55;;;13.80;99.90;;;;;;5052313;28;20110;-81
2022/09/25 08:38:34;;;;;;;9.43;1.80;;;13.90;99.90;;;;;;5051408;28;20029;-81
2022/09/25 08:41:02;;;;;;;8.77;2.00;;;13.90;99.90;;;;;;5052569;28;20036;-81
2022/09/25 08:43:31;;;;;;;8.70;1.88;;;13.90;99.90;;;;;;5052623;28;20072;-81
2022/09/25 08:49:02;;;;;;;8.48;2.13;;;14.10;99.90;;;;;;5052194;28;20040;-81
2022/09/25 08:51:31;;;;;;;7.57;1.67;;;14.10;99.90;;;;;;5051218;28;20036;-81
2022/09/25 08:53:58;;;;;;;7.45;1.27;;;14.10;99.90;;;;;;5052457;28;20037;-81
2022/09/25 08:56:27;;;;;;;6.43;1.30;;;14.10;99.90;;;;;;5050956;28;20029;-81
2022/09/25 08:59:01;;;;;;;12.40;2.65;;;14.20;99.90;;;;;;5052037;28;20460;-82
2022/09/25 09:01:45;;;;;;;8.57;2.20;;;14.20;99.90;;;;;;5034455;28;20048;-82
2022/09/25 09:04:17;;;;;;;4.93;1.30;;;14.20;99.90;;;;;;5052312;28;20033;-81
2022/09/25 09:06:45;;;;;;;13.35;1.67;;;14.20;99.90;;;;;;5050652;28;20025;-81
2022/09/25 09:09:16;;;;;;;7.72;1.60;;;14.30;99.90;;;;;;5050864;28;20040;-81
2022/09/25 09:11:56;;;;;;;7.22;1.35;;;14.30;99.90;;;;;;5051055;28;20044;-81
2022/09/25 09:14:28;;;;;;;9.45;2.63;;;14.40;99.90;;;;;;5051961;28;20029;-81
2022/09/25 09:17:06;;;;;;;9.13;1.10;;;14.50;99.90;;;;;;5051799;28;20039;-81
2022/09/25 09:19:32;;;;;;;6.20;1.30;;;14.50;99.90;;;;;;5050440;28;20115;-81
2022/09/25 09:22:00;;;;;;;8.27;1.27;;;14.50;99.90;;;;;;5033836;28;20029;-81
2022/09/25 09:24:38;;;;;;;2.83;0.73;;;14.60;99.90;;;;;;5050596;28;20028;-81
2022/09/25 09:30:19;;;;;;;7.82;1.00;;;14.70;99.90;;;;;;5010050;28;20052;-85
2022/09/25 09:33:18;;;;;;;7.30;1.58;;;14.70;99.90;;;;;;4994624;28;20057;-84
2022/09/25 09:36:09;;;;;;;4.03;0.90;;;14.70;99.90;;;;;;4994121;28;20505;-85
2022/09/25 09:38:55;;;;;;;2.25;0.90;;;14.70;99.90;;;;;;4963437;28;20046;-85
2022/09/25 09:41:49;;;;;;;3.53;0.73;;;14.70;99.90;;;;;;4992239;28;20033;-85
2022/09/25 09:44:18;;;;;;;6.90;1.23;;;14.70;99.90;;;;;;4974694;28;20475;-85
2022/09/25 09:47:13;;;;;;;5.07;1.10;;;14.70;99.90;;;;;;4991993;28;20033;-85
2022/09/25 09:49:42;;;;;;;7.00;1.90;;;14.70;99.90;;;;;;4992083;28;20026;-85
2022/09/25 09:52:20;;;;;;;6.88;3.13;;;14.70;99.90;;;;;;4992016;28;20038;-85
2022/09/25 09:55:22;;;;;;;6.35;1.33;;;14.70;99.90;;;;;;4991936;28;20476;-85
2022/09/25 09:58:04;;;;;;;7.85;1.10;;;14.70;99.90;;;;;;4956992;28;20042;-85
2022/09/25 10:00:31;;;;;;;6.90;1.73;;;14.70;99.90;;;;;;4991790;28;20051;-85
2022/09/25 10:03:11;;;;;;;6.28;2.00;;;14.70;99.90;;;;;;4990802;28;20471;-85
2022/09/25 10:05:40;;;;;;;6.40;1.60;;;14.80;99.90;;;;;;4991648;28;20487;-85
2022/09/25 10:08:08;;;;;;;6.07;1.20;;;14.90;99.90;;;;;;4991833;28;20391;-85
2022/09/25 10:10:36;;;;;;;6.82;1.35;;;14.90;99.90;;;;;;4991480;28;20827;-85
2022/09/25 10:13:09;;;;;;;4.15;0.90;;;14.90;99.70;;;;;;4990534;28;20044;-85
2022/09/25 10:15:50;;;;;;;2.53;0.82;;;15.00;99.90;;;;;;4991627;28;20038;-85
2022/09/25 10:18:17;;;;;;;3.45;1.13;;;15.00;99.80;;;;;;4990585;28;20475;-85
2022/09/25 10:20:56;;;;;;;5.97;1.35;;;14.90;99.80;;;;;;4991283;28;20062;-85
2022/09/25 10:23:52;;;;;;;3.72;1.15;;;14.90;99.90;;;;;;4991659;28;20093;-85
2022/09/25 10:26:32;;;;;;;5.75;1.00;;;15.00;99.90;;;;;;4982953;28;20042;-85
2022/09/25 10:29:00;;;;;;;6.78;0.95;;;15.10;99.90;;;;;;4991293;28;20549;-85
2022/09/25 10:31:29;;;;;;;8.45;1.10;;;15.10;99.90;;;;;;4991668;28;20589;-85
2022/09/25 10:34:03;;;;;;;6.75;1.00;;;15.10;99.90;;;;;;4991484;28;20122;-85
2022/09/25 10:36:45;;;;;;;5.28;0.98;;;15.10;99.90;;;;;;4989977;28;20158;-85
2022/09/25 10:39:29;;;;;;;4.85;0.80;;;15.10;99.10;;;;;;4991425;28;20038;-85
2022/09/25 10:41:57;;;;;;;2.45;0.80;;;15.10;98.40;;;;;;4991498;28;20383;-85
2022/09/25 10:44:43;;;;;;;4.18;0.90;;;15.10;98.40;;;;;;4991414;28;20037;-84
2022/09/25 10:50:22;;;;;;;8.32;1.40;;;15.20;98.30;;;;;;4991296;28;20092;-85
2022/09/25 10:53:00;;;;;;;7.25;2.28;;;15.30;98.40;;;;;;4991365;28;20498;-86
2022/09/25 10:55:36;;;;;;;6.88;1.45;;;15.40;98.80;;;;;;4991098;28;20042;-85
2022/09/25 10:58:18;;;;;;;6.40;2.13;;;15.40;98.40;;;;;;4990105;28;20435;-85
2022/09/25 11:00:53;;;;;;;4.43;1.60;;;15.40;97.50;;;;;;4991051;28;20027;-85
2022/09/25 11:03:29;;;;;;;4.43;1.50;;;15.40;97.50;;;;;;4991167;28;20030;-85
2022/09/25 11:05:59;;;;;;;8.95;1.70;;;15.40;97.80;;;;;;4990990;28;20041;-85
2022/09/25 11:08:31;;;;;;;7.60;2.30;;;15.40;98.00;;;;;;4989838;28;20498;-85
2022/09/25 11:10:59;;;;;;;6.68;2.10;;;15.40;98.70;;;;;;4991460;28;20067;-85
2022/09/25 11:13:28;;;;;;;5.63;1.67;;;15.30;99.10;;;;;;4989772;28;20057;-85
2022/09/25 11:16:03;;;;;;;7.95;1.83;;;15.30;99.10;;;;;;4989731;28;20121;-85
2022/09/25 11:18:43;;;;;;;4.88;0.93;;;15.30;99.00;;;;;;4989501;28;20121;-85
2022/09/25 11:21:24;;;;;;;4.65;1.30;;;15.40;98.50;;;;;;4991178;28;20026;-85
2022/09/25 11:24:05;;;;;;;6.45;1.27;;;15.40;98.30;;;;;;4991090;28;20031;-85
2022/09/25 11:26:40;;;;;;;4.70;0.82;;;15.50;98.00;;;;;;4990722;28;20029;-85
2022/09/25 11:29:32;;;;;;;5.32;0.90;;;15.60;97.20;;;;;;4990602;28;20081;-85
2022/09/25 11:32:46;;;;;;;2.58;0.70;;;15.60;96.90;;;;;;4991742;28;20535;-85
2022/09/25 11:35:26;;;;;;;5.65;1.60;;;15.50;97.10;;;;;;4963346;28;20661;-85
2022/09/25 11:41:37;;;;;;;8.30;1.50;;;15.40;98.30;;;;;;4963511;28;20055;-85
2022/09/25 11:44:30;;;;;;;6.47;1.88;;;15.40;98.50;;;;;;4994554;28;20481;-85
2022/09/25 11:47:05;;;;;;;7.50;2.20;;;15.30;98.30;;;;;;4993029;28;20085;-85
2022/09/25 11:49:36;;;;;;;11.68;2.20;;;15.30;98.50;;;;;;4994075;28;20037;-85
2022/09/25 11:52:22;;;;;;;7.68;2.35;;;15.20;98.70;;;;;;4994306;28;20030;-85
2022/09/25 11:55:25;;;;;;;9.52;2.47;;;15.30;98.80;;;;;;4994391;28;20040;-85
2022/09/25 11:58:22;;;;;;;9.60;3.40;;;15.30;98.50;;;;;;4994143;28;20073;-84
2022/09/25 12:00:53;;;;;;;10.02;2.15;;;15.50;96.20;;;;;;4993077;28;20038;-85
2022/09/25 12:04:02;;;;;;;6.32;1.25;;;15.50;96.20;;;;;;4993132;28;20450;-85
2022/09/25 12:06:47;;;;;;;;;;;15.60;95.90;;;;;;4994392;28;20066;-85
2022/09/25 12:09:32;;;;;;;4.25;1.05;;;15.60;95.90;;;;;;4992578;28;19953;-85
2022/09/25 12:12:25;;;;;;;5.82;1.17;;;15.60;95.20;;;;;;4993999;28;20053;-85
2022/09/25 12:15:20;;;;;;;3.75;0.90;;;15.70;93.80;;;;;;4993981;28;20034;-85
2022/09/25 12:18:19;;;;;;;2.28;0.70;;;15.80;93.90;;;;;;4993682;28;20122;-85
2022/09/25 12:20:50;;;;;;;3.15;1.10;;;15.80;94.10;;;;;;4992648;28;20447;-85
2022/09/25 12:23:32;;;;;;;2.42;1.10;;;15.80;94.50;;;;;;4994241;28;20034;-85
2022/09/25 12:26:04;;;;;;;6.70;1.40;;;15.80;94.60;;;;;;4993869;28;20045;-85
2022/09/25 12:28:42;;;;;;;6.07;1.23;;;15.80;94.70;;;;;;4992164;28;20497;-85
2022/09/25 12:31:26;;;;;;;7.03;1.08;;;15.80;94.80;;;;;;4993597;28;20034;-85
2022/09/25 12:33:56;;;;;;;5.70;1.40;;;15.80;94.30;;;;;;4994026;28;20046;-85
2022/09/25 12:36:35;;;;;;;7.60;1.50;;;15.90;94.50;;;;;;4993440;28;20399;-85
2022/09/25 12:39:19;;;;;;;5.38;1.90;;;15.90;94.80;;;;;;4993254;28;20045;-85
2022/09/25 12:42:03;;;;;;;5.78;2.20;;;16.00;94.80;;;;;;4993320;28;20034;-85
2022/09/25 12:44:48;;;;;;;7.85;2.53;;;16.10;94.20;;;;;;4992312;28;20061;-85
2022/09/25 12:47:32;;;;;;;6.25;1.10;;;16.10;94.40;;;;;;4993197;28;20121;-85
2022/09/25 12:50:08;;;;;;;5.63;1.30;;;16.10;92.70;;;;;;4993039;28;20037;-85
2022/09/25 12:52:49;;;;;;;7.80;1.30;;;16.00;93.30;;;;;;4993375;28;20092;-85
2022/09/25 12:55:22;;;;;;;3.80;1.38;;;15.90;93.80;;;;;;4993100;28;20398;-85
2022/09/25 12:58:10;;;;;;;3.78;1.20;;;15.90;93.80;;;;;;4991577;28;20406;-85
2022/09/25 13:00:41;;;;;;;6.20;1.02;;;15.80;93.50;;;;;;4992844;28;20031;-85
2022/09/25 13:03:31;;;;;;;2.65;0.90;;;15.80;92.60;;;;;;4993097;28;20302;-85
2022/09/25 13:06:10;;;;;;;5.32;1.48;;;15.80;92.80;;;;;;4992870;28;20479;-85
2022/09/25 13:08:55;;;;;;;4.20;1.13;;;15.70;92.90;;;;;;4992589;28;20095;-85
2022/09/25 13:12:10;;;;;;;5.50;1.20;;;15.70;92.90;;;;;;4991810;28;20038;-85
2022/09/25 13:14:42;;;;;;;6.82;1.60;;;15.70;93.10;;;;;;4951483;29;20528;-85
2022/09/25 13:17:12;;;;;;;4.72;1.27;;;15.80;92.90;;;;;;4985821;28;20054;-85
2022/09/25 13:19:38;;;;;;;7.38;2.85;;;15.80;93.20;;;;;;4992551;28;20383;-84
2022/09/25 13:22:25;;;;;;;6.22;1.80;;;15.80;93.10;;;;;;4992582;28;20088;-85
2022/09/25 13:25:12;;;;;;;7.20;2.00;;;15.80;92.60;;;;;;4991301;28;20482;-84
2022/09/25 13:27:45;;;;;;;7.05;2.03;;;15.90;92.40;;;;;;4974856;28;20057;-85
2022/09/25 13:30:22;;;;;;;7.10;2.03;;;15.90;92.90;;;;;;4992240;28;20048;-85
2022/09/25 13:32:51;;;;;;;7.95;1.60;;;15.90;93.30;;;;;;4993247;28;20538;-84
2022/09/25 13:35:18;;;;;;;;;;;15.90;92.90;;;;;;4991707;28;20380;-85